createdAt,value
2022-12-27T00:00:21.046Z,91.32
2022-12-27T00:02:53.520Z,91.88
2022-12-27T00:05:25.823Z,91.62
2022-12-27T00:07:58.922Z,91.72
2022-12-27T00:10:33.069Z,91.86
2022-12-27T00:13:05.588Z,92.07
2022-12-27T00:15:37.898Z,91.96
2022-12-27T00:18:10.260Z,92.62
2022-12-27T00:20:42.930Z,92.27
2022-12-27T00:23:15.955Z,93.28
2022-12-27T00:25:48.238Z,92.73
2022-12-27T00:28:20.633Z,93.85
2022-12-27T00:30:54.502Z,94.59
2022-12-27T00:33:28.715Z,93.50
2022-12-27T00:36:03.450Z,93.80
2022-12-27T00:38:36.494Z,93.57
2022-12-27T00:41:09.080Z,93.68
2022-12-27T00:43:41.470Z,93.58
2022-12-27T00:46:14.248Z,93.05
2022-12-27T00:48:46.925Z,93.19
2022-12-27T00:51:21.536Z,93.43
2022-12-27T00:53:55.174Z,92.05
2022-12-27T00:56:29.945Z,92.42
2022-12-27T00:59:04.101Z,93.21
2022-12-27T01:01:36.855Z,92.94
2022-12-27T01:04:12.804Z,93.51
2022-12-27T01:06:45.116Z,92.57
2022-12-27T01:09:18.119Z,92.66
2022-12-27T01:11:50.435Z,92.64
2022-12-27T01:14:22.846Z,92.31
2022-12-27T01:16:55.157Z,92.34
2022-12-27T01:19:27.592Z,92.11
2022-12-27T01:22:00.050Z,91.61
2022-12-27T01:24:34.151Z,92.33
2022-12-27T01:27:06.455Z,92.56
2022-12-27T01:29:38.893Z,92.80
2022-12-27T01:32:11.198Z,92.98
2022-12-27T01:34:43.555Z,93.76
2022-12-27T01:37:15.823Z,93.77
2022-12-27T01:39:48.850Z,94.01
2022-12-27T01:42:39.382Z,93.13
2022-12-27T01:45:14.956Z,93.86
2022-12-27T01:47:53.118Z,94.47
2022-12-27T01:50:31.727Z,94.14
2022-12-27T01:53:09.083Z,94.19
2022-12-27T01:55:50.107Z,94.55
2022-12-27T01:58:26.526Z,94.33
2022-12-27T02:00:59.312Z,94.90
2022-12-27T02:03:34.658Z,94.85
2022-12-27T02:06:09.425Z,94.62
2022-12-27T02:08:52.651Z,94.60
2022-12-27T02:11:48.007Z,95.30
2022-12-27T02:14:27.663Z,95.55
2022-12-27T02:17:04.848Z,95.85
2022-12-27T02:19:51.988Z,95.72
2022-12-27T02:23:23.486Z,95.56
2022-12-27T02:26:27.618Z,95.46
2022-12-27T02:29:11.118Z,94.89
2022-12-27T02:31:51.322Z,95.77
2022-12-27T02:34:25.932Z,95.81
2022-12-27T02:37:03.656Z,94.79
2022-12-27T02:39:39.709Z,94.91
2022-12-27T02:42:31.472Z,95.85
2022-12-27T02:45:47.029Z,95.12
2022-12-27T02:48:37.708Z,96.56
2022-12-27T02:51:49.279Z,95.91
2022-12-27T02:54:39.417Z,97.27
2022-12-27T02:57:31.367Z,97.44
2022-12-27T03:00:27.319Z,97.95
2022-12-27T03:03:30.539Z,99.22
2022-12-27T03:06:42.038Z,98.96
2022-12-27T03:10:20.539Z,99.09
2022-12-27T03:13:17.538Z,99.83
2022-12-27T03:16:08.065Z,99.64
2022-12-27T03:19:08.150Z,99.68
2022-12-27T03:22:17.607Z,100.00
2022-12-27T03:25:08.781Z,100.00
2022-12-27T03:27:43.141Z,100.00
2022-12-27T03:30:36.048Z,100.00
2022-12-27T03:33:15.221Z,100.00
2022-12-27T03:36:07.172Z,100.00
2022-12-27T03:38:47.379Z,100.00
2022-12-27T03:41:44.718Z,100.00
2022-12-27T03:44:26.225Z,100.00
2022-12-27T03:46:59.847Z,100.00
2022-12-27T03:49:39.525Z,100.00
2022-12-27T03:52:17.008Z,100.00
2022-12-27T03:54:51.706Z,100.00
2022-12-27T03:57:26.247Z,100.00
2022-12-27T03:59:59.815Z,100.00
2022-12-27T04:02:32.295Z,100.00
2022-12-27T04:05:06.319Z,100.00
2022-12-27T04:07:38.705Z,100.00
2022-12-27T04:10:30.669Z,100.00
2022-12-27T04:13:21.009Z,100.00
2022-12-27T04:16:11.530Z,100.00
2022-12-27T04:19:02.221Z,100.00
2022-12-27T04:21:53.740Z,100.00
2022-12-27T04:24:44.325Z,100.00
2022-12-27T04:27:34.777Z,100.00
2022-12-27T04:30:26.724Z,100.00
2022-12-27T04:33:17.285Z,100.00
2022-12-27T04:35:50.164Z,100.00
2022-12-27T04:38:23.168Z,100.00
2022-12-27T04:41:13.689Z,100.00
2022-12-27T04:44:04.299Z,100.00
2022-12-27T04:46:54.796Z,100.00
2022-12-27T04:49:45.937Z,100.00
2022-12-27T04:52:39.121Z,100.00
2022-12-27T04:55:17.880Z,100.00
2022-12-27T04:57:51.177Z,100.00
2022-12-27T05:00:58.491Z,100.00
2022-12-27T05:03:33.232Z,100.00
2022-12-27T05:06:06.721Z,100.00
2022-12-27T05:08:57.324Z,100.00
2022-12-27T05:11:48.714Z,100.00
2022-12-27T05:14:21.014Z,100.00
2022-12-27T05:16:53.341Z,100.00
2022-12-27T05:19:25.719Z,100.00
2022-12-27T05:22:16.095Z,100.00
2022-12-27T05:25:06.985Z,100.00
2022-12-27T05:27:40.052Z,100.00
2022-12-27T05:30:12.603Z,100.00
2022-12-27T05:32:44.925Z,100.00
2022-12-27T05:35:17.253Z,100.00
2022-12-27T05:37:54.727Z,100.00
2022-12-27T05:40:27.697Z,100.00
2022-12-27T05:43:01.426Z,100.00
2022-12-27T05:45:33.911Z,100.00
2022-12-27T05:48:06.292Z,100.00
2022-12-27T05:50:38.665Z,100.00
2022-12-27T05:53:17.792Z,100.00
2022-12-27T05:55:54.315Z,100.00
2022-12-27T05:58:28.175Z,100.00
2022-12-27T06:01:01.336Z,100.00
2022-12-27T06:03:33.701Z,100.00
2022-12-27T06:06:08.105Z,100.00
2022-12-27T06:08:41.040Z,100.00
2022-12-27T06:11:15.926Z,100.00
2022-12-27T06:13:51.298Z,100.00
2022-12-27T06:16:23.788Z,100.00
2022-12-27T06:18:56.158Z,100.00
2022-12-27T06:21:28.580Z,100.00
2022-12-27T06:24:00.949Z,100.00
2022-12-27T06:26:33.397Z,100.00
2022-12-27T06:29:06.574Z,100.00
2022-12-27T06:31:39.240Z,100.00
2022-12-27T06:34:11.591Z,100.00
2022-12-27T06:36:49.188Z,100.00
2022-12-27T06:39:21.731Z,100.00
2022-12-27T06:41:55.558Z,100.00
2022-12-27T06:44:28.601Z,100.00
2022-12-27T06:47:01.517Z,100.00
2022-12-27T06:49:33.911Z,100.00
2022-12-27T06:52:06.265Z,100.00
2022-12-27T06:54:38.627Z,100.00
2022-12-27T06:57:10.993Z,100.00
2022-12-27T06:59:46.937Z,100.00
2022-12-27T07:02:22.014Z,100.00
2022-12-27T07:04:54.399Z,100.00
2022-12-27T07:07:26.801Z,100.00
2022-12-27T07:09:59.168Z,100.00
2022-12-27T07:12:36.505Z,100.00
2022-12-27T07:15:10.334Z,100.00
2022-12-27T07:17:42.739Z,100.00
2022-12-27T07:20:15.110Z,100.00
2022-12-27T07:22:47.463Z,100.00
2022-12-27T07:25:19.789Z,100.00
2022-12-27T07:27:52.173Z,100.00
2022-12-27T07:30:25.323Z,100.00
2022-12-27T07:32:57.683Z,100.00
2022-12-27T07:35:30.002Z,100.00
2022-12-27T07:38:02.406Z,100.00
2022-12-27T07:40:36.302Z,100.00
2022-12-27T07:43:08.664Z,100.00
2022-12-27T07:45:41.659Z,100.00
2022-12-27T07:48:14.101Z,100.00
2022-12-27T07:50:54.321Z,100.00
2022-12-27T07:53:26.706Z,100.00
2022-12-27T07:55:59.188Z,100.00
2022-12-27T07:58:35.964Z,100.00
2022-12-27T08:01:10.441Z,100.00
2022-12-27T08:03:43.219Z,100.00
2022-12-27T08:06:21.840Z,100.00
2022-12-27T08:08:55.839Z,100.00
2022-12-27T08:11:29.432Z,100.00
2022-12-27T08:14:01.820Z,100.00
2022-12-27T08:16:34.864Z,100.00
2022-12-27T08:19:08.711Z,100.00
2022-12-27T08:21:41.169Z,100.00
2022-12-27T08:24:13.602Z,100.00
2022-12-27T08:26:45.925Z,100.00
2022-12-27T08:29:18.383Z,100.00
2022-12-27T08:31:51.444Z,100.00
2022-12-27T08:34:23.828Z,100.00
2022-12-27T08:36:56.694Z,100.00
2022-12-27T08:39:29.694Z,100.00
2022-12-27T08:42:02.050Z,100.00
2022-12-27T08:44:35.012Z,100.00
2022-12-27T08:47:07.952Z,99.26
2022-12-27T08:49:40.339Z,98.25
2022-12-27T08:52:12.681Z,96.79
2022-12-27T08:54:45.090Z,97.00
2022-12-27T08:57:17.406Z,94.43
2022-12-27T08:59:49.910Z,94.27
2022-12-27T09:02:22.933Z,93.47
2022-12-27T09:04:55.429Z,93.29
2022-12-27T09:07:27.739Z,92.86
2022-12-27T09:10:00.116Z,89.09
2022-12-27T09:12:33.057Z,87.26
2022-12-27T09:15:06.705Z,86.59
2022-12-27T09:17:40.458Z,86.81
2022-12-27T09:20:12.863Z,82.55
2022-12-27T09:22:45.215Z,84.64
2022-12-27T09:25:17.767Z,82.65
2022-12-27T09:27:50.159Z,79.46
2022-12-27T09:30:22.598Z,76.14
2022-12-27T09:32:57.578Z,74.40
2022-12-27T09:35:30.225Z,73.66
2022-12-27T09:38:04.067Z,73.14
2022-12-27T09:40:37.495Z,70.82
2022-12-27T09:43:22.333Z,68.46
2022-12-27T09:45:59.262Z,68.88
2022-12-27T09:48:35.707Z,67.62
2022-12-27T09:51:15.268Z,65.92
2022-12-27T09:53:57.240Z,65.35
2022-12-27T09:56:54.496Z,65.47
2022-12-27T09:59:31.069Z,66.03
2022-12-27T10:02:08.549Z,62.23
2022-12-27T10:05:18.073Z,61.95
2022-12-27T10:07:45.024Z,60.65
2022-12-27T10:10:26.351Z,60.73
2022-12-27T10:13:21.326Z,59.61
2022-12-27T10:16:09.122Z,60.06
2022-12-27T10:18:54.308Z,57.72
2022-12-27T10:21:29.721Z,56.59
2022-12-27T10:24:12.672Z,55.29
2022-12-27T10:26:44.971Z,54.68
2022-12-27T10:29:21.492Z,54.58
2022-12-27T10:31:53.915Z,54.75
2022-12-27T10:34:26.456Z,53.50
2022-12-27T10:36:59.475Z,52.55
2022-12-27T10:39:35.655Z,52.73
2022-12-27T10:42:15.146Z,54.25
2022-12-27T10:44:47.631Z,52.42
2022-12-27T10:47:25.529Z,51.88
2022-12-27T10:50:08.302Z,51.35
2022-12-27T10:52:43.523Z,50.99
2022-12-27T10:55:33.294Z,50.46
2022-12-27T10:58:36.807Z,49.26
2022-12-27T11:01:16.174Z,49.84
2022-12-27T11:03:48.886Z,49.83
2022-12-27T11:06:24.622Z,49.45
2022-12-27T11:08:57.581Z,49.45
2022-12-27T11:11:30.521Z,49.41
2022-12-27T11:14:12.464Z,50.10
2022-12-27T11:16:45.648Z,50.34
2022-12-27T11:19:23.420Z,50.76
2022-12-27T11:21:56.694Z,51.30
2022-12-27T11:24:30.345Z,51.13
2022-12-27T11:27:03.627Z,50.99
2022-12-27T11:29:37.191Z,51.13
2022-12-27T11:32:09.883Z,51.96
2022-12-27T11:34:48.308Z,50.80
2022-12-27T11:37:24.291Z,49.87
2022-12-27T11:40:13.284Z,49.99
2022-12-27T11:42:51.014Z,49.61
2022-12-27T11:45:28.864Z,49.80
2022-12-27T11:48:07.201Z,50.38
2022-12-27T11:51:03.764Z,48.86
2022-12-27T11:54:05.297Z,50.44
2022-12-27T11:56:40.828Z,51.01
2022-12-27T11:59:34.486Z,51.36
2022-12-27T12:02:28.451Z,50.45
2022-12-27T12:05:27.257Z,50.54
2022-12-27T12:08:26.902Z,52.55
2022-12-27T12:11:10.185Z,52.20
2022-12-27T12:14:00.303Z,52.05
2022-12-27T12:17:11.007Z,52.29
2022-12-27T12:20:04.150Z,52.96
2022-12-27T12:22:50.496Z,53.88
2022-12-27T12:25:49.988Z,54.02
2022-12-27T12:28:59.108Z,54.36
2022-12-27T12:32:00.566Z,55.54
2022-12-27T12:35:05.584Z,56.53
2022-12-27T12:37:57.055Z,56.69
2022-12-27T12:40:51.481Z,57.88
2022-12-27T12:43:44.842Z,58.19
2022-12-27T12:46:27.153Z,57.86
2022-12-27T12:49:18.205Z,58.57
2022-12-27T12:52:03.563Z,58.99
2022-12-27T12:54:54.082Z,58.64
2022-12-27T12:57:41.547Z,58.47
2022-12-27T13:00:36.895Z,58.72
2022-12-27T13:03:51.689Z,58.69
2022-12-27T13:06:45.093Z,59.17
2022-12-27T13:09:29.177Z,59.10
2022-12-27T13:12:08.747Z,59.20
2022-12-27T13:14:55.483Z,59.83
2022-12-27T13:17:38.572Z,60.84
2022-12-27T13:20:32.114Z,61.33
2022-12-27T13:23:17.433Z,61.80
2022-12-27T13:25:58.687Z,62.14
2022-12-27T13:28:42.297Z,62.88
2022-12-27T13:31:29.426Z,63.14
2022-12-27T13:34:20.006Z,63.63
2022-12-27T13:37:09.928Z,64.71
2022-12-27T13:39:57.323Z,64.47
2022-12-27T13:42:54.929Z,64.36
2022-12-27T13:45:44.090Z,64.46
2022-12-27T13:48:39.939Z,64.44
2022-12-27T13:51:36.469Z,65.39
2022-12-27T13:54:32.149Z,65.81
2022-12-27T13:57:25.520Z,66.00
2022-12-27T14:00:09.608Z,66.04
2022-12-27T14:03:21.618Z,67.95
2022-12-27T14:06:17.866Z,68.80
2022-12-27T14:09:29.119Z,68.15
2022-12-27T14:12:26.193Z,68.87
2022-12-27T14:15:02.846Z,69.20
2022-12-27T14:17:43.126Z,69.57
2022-12-27T14:20:30.704Z,68.96
2022-12-27T14:23:21.607Z,68.92
2022-12-27T14:26:40.253Z,68.78
2022-12-27T14:30:02.358Z,69.15
2022-12-27T14:33:18.099Z,69.81
2022-12-27T14:36:11.185Z,71.64
2022-12-27T14:39:19.103Z,73.30
2022-12-27T14:42:17.131Z,73.29
2022-12-27T14:45:33.379Z,73.27
2022-12-27T14:48:39.007Z,74.04
2022-12-27T14:54:58.321Z,75.89
2022-12-27T14:57:38.826Z,76.02
2022-12-27T15:00:15.344Z,76.32
2022-12-27T15:03:13.692Z,78.63
2022-12-27T15:05:57.756Z,78.52
2022-12-27T15:08:45.538Z,77.94
2022-12-27T15:11:35.168Z,77.38
2022-12-27T15:14:22.131Z,78.51
2022-12-27T15:17:08.353Z,79.07
2022-12-27T15:20:09.741Z,79.60
2022-12-27T15:22:55.974Z,80.08
2022-12-27T15:25:43.795Z,79.60
2022-12-27T15:28:22.980Z,80.25
2022-12-27T15:31:03.407Z,80.29
2022-12-27T15:33:46.350Z,80.07
2022-12-27T15:36:35.176Z,79.78
2022-12-27T15:39:47.972Z,80.08
2022-12-27T15:42:52.657Z,80.40
2022-12-27T15:45:39.940Z,81.65
2022-12-27T15:48:57.843Z,82.42
2022-12-27T15:51:36.135Z,82.24
2022-12-27T15:54:36.998Z,81.79
2022-12-27T15:57:31.249Z,85.34
2022-12-27T16:00:15.719Z,85.05
2022-12-27T16:02:53.636Z,82.99
2022-12-27T16:05:47.422Z,82.22
2022-12-27T16:08:32.942Z,82.90
2022-12-27T16:11:08.435Z,83.22
2022-12-27T16:13:47.478Z,82.69
2022-12-27T16:16:52.567Z,83.39
2022-12-27T16:20:05.031Z,82.90
2022-12-27T16:22:39.813Z,82.56
2022-12-27T16:25:31.823Z,82.66
2022-12-27T16:28:07.737Z,80.96
2022-12-27T16:30:44.571Z,80.48
2022-12-27T16:33:30.802Z,81.54
2022-12-27T16:36:20.645Z,81.99
2022-12-27T16:39:31.012Z,81.99
2022-12-27T16:42:06.553Z,82.03
2022-12-27T16:44:57.139Z,82.81
2022-12-27T16:48:04.831Z,83.37
2022-12-27T16:50:52.223Z,83.73
2022-12-27T16:53:54.196Z,83.21
2022-12-27T16:56:28.276Z,83.23
2022-12-27T16:59:01.440Z,82.51
2022-12-27T17:01:57.569Z,82.59
2022-12-27T17:04:53.886Z,83.03
2022-12-27T17:07:49.620Z,82.40
2022-12-27T17:10:44.530Z,82.41
2022-12-27T17:13:20.813Z,83.29
2022-12-27T17:16:00.435Z,83.43
2022-12-27T17:18:36.588Z,84.09
2022-12-27T17:21:14.073Z,84.10
2022-12-27T17:23:48.319Z,83.84
2022-12-27T17:26:53.120Z,83.62
2022-12-27T17:29:52.984Z,83.48
2022-12-27T17:32:40.495Z,84.21
2022-12-27T17:35:25.734Z,84.61
2022-12-27T17:38:17.023Z,85.01
2022-12-27T17:41:00.891Z,85.77
2022-12-27T17:44:00.931Z,85.89
2022-12-27T17:46:43.435Z,85.20
2022-12-27T17:49:17.059Z,85.38
2022-12-27T17:52:04.028Z,85.79
2022-12-27T17:54:56.806Z,85.57
2022-12-27T17:57:47.384Z,85.01
2022-12-27T18:00:23.243Z,84.75
2022-12-27T18:02:58.814Z,84.35
2022-12-27T18:05:36.186Z,84.71
2022-12-27T18:08:19.984Z,85.96
2022-12-27T18:10:52.413Z,86.15
2022-12-27T18:13:27.217Z,86.02
2022-12-27T18:16:03.182Z,86.04
2022-12-27T18:18:35.627Z,87.36
2022-12-27T18:21:21.308Z,88.00
2022-12-27T18:23:54.696Z,87.90
2022-12-27T18:26:37.840Z,87.65
2022-12-27T18:29:11.328Z,86.96
2022-12-27T18:31:48.890Z,87.83
2022-12-27T18:34:26.792Z,87.79
2022-12-27T18:37:02.810Z,88.52
2022-12-27T18:39:38.399Z,88.75
2022-12-27T18:42:17.408Z,88.88
2022-12-27T18:44:54.645Z,89.19
2022-12-27T18:47:28.168Z,89.42
2022-12-27T18:50:03.172Z,88.88
2022-12-27T18:52:40.343Z,90.49
2022-12-27T18:55:17.717Z,90.03
2022-12-27T18:58:03.078Z,89.58
2022-12-27T19:00:47.809Z,89.07
2022-12-27T19:03:20.823Z,90.01
2022-12-27T19:06:00.867Z,90.29
2022-12-27T19:08:37.502Z,91.16
2022-12-27T19:11:19.635Z,92.12
2022-12-27T19:13:53.933Z,94.18
2022-12-27T19:16:28.543Z,94.30
2022-12-27T19:19:07.036Z,93.87
2022-12-27T19:21:39.749Z,93.53
2022-12-27T19:24:32.018Z,93.31
2022-12-27T19:27:21.845Z,92.30
2022-12-27T19:29:53.910Z,90.56
2022-12-27T19:32:32.318Z,89.30
2022-12-27T19:35:05.312Z,89.22
2022-12-27T19:37:37.729Z,91.61
2022-12-27T19:40:14.933Z,92.51
2022-12-27T19:42:47.295Z,92.21
2022-12-27T19:45:19.973Z,91.80
2022-12-27T19:47:54.515Z,93.93
2022-12-27T19:50:26.861Z,93.79
2022-12-27T19:52:59.473Z,94.52
2022-12-27T19:55:35.496Z,94.63
2022-12-27T19:58:17.840Z,93.78
2022-12-27T20:00:50.174Z,94.17
2022-12-27T20:03:22.686Z,94.43
2022-12-27T20:06:13.026Z,94.48
2022-12-27T20:08:49.915Z,93.74
2022-12-27T20:11:23.694Z,93.79
2022-12-27T20:13:56.066Z,93.75
2022-12-27T20:16:28.393Z,93.12
2022-12-27T20:19:01.820Z,93.38
2022-12-27T20:21:34.151Z,93.84
2022-12-27T20:24:09.364Z,94.27
2022-12-27T20:26:42.981Z,95.11
2022-12-27T20:29:15.542Z,95.17
2022-12-27T20:31:49.349Z,94.55
2022-12-27T20:34:21.847Z,94.74
2022-12-27T20:36:54.740Z,94.12
2022-12-27T20:39:27.153Z,94.83
2022-12-27T20:42:01.025Z,95.03
2022-12-27T20:44:33.527Z,95.48
2022-12-27T20:47:05.892Z,95.23
2022-12-27T20:49:38.809Z,94.47
2022-12-27T20:52:11.116Z,95.92
2022-12-27T20:54:43.518Z,95.57
2022-12-27T20:57:16.507Z,96.96
2022-12-27T20:59:48.861Z,95.89
2022-12-27T21:02:21.353Z,96.22
2022-12-27T21:04:53.916Z,96.54
2022-12-27T21:07:26.451Z,97.15
2022-12-27T21:09:58.838Z,97.03
2022-12-27T21:12:32.046Z,97.30
2022-12-27T21:15:07.432Z,97.14
2022-12-27T21:17:39.728Z,97.92
2022-12-27T21:20:12.749Z,97.28
2022-12-27T21:22:45.079Z,96.23
2022-12-27T21:25:17.588Z,95.88
2022-12-27T21:27:50.536Z,96.83
2022-12-27T21:30:22.938Z,97.25
2022-12-27T21:32:55.231Z,96.92
2022-12-27T21:35:27.560Z,97.73
2022-12-27T21:37:59.886Z,98.58
2022-12-27T21:40:32.652Z,99.19
2022-12-27T21:43:05.639Z,98.11
2022-12-27T21:45:38.005Z,97.52
2022-12-27T21:48:10.362Z,98.25
2022-12-27T21:50:42.985Z,100.00
2022-12-27T21:53:15.964Z,100.00
2022-12-27T21:55:48.367Z,100.00
2022-12-27T21:58:22.447Z,100.00
2022-12-27T22:01:03.637Z,100.00
2022-12-27T22:03:40.547Z,100.00
2022-12-27T22:06:14.474Z,100.00
2022-12-27T22:08:48.669Z,100.00
2022-12-27T22:11:22.653Z,100.00
2022-12-27T22:13:56.066Z,100.00
2022-12-27T22:16:30.499Z,100.00
2022-12-27T22:19:05.328Z,100.00
2022-12-27T22:21:39.155Z,100.00
2022-12-27T22:24:12.567Z,100.00
2022-12-27T22:26:44.989Z,100.00
2022-12-27T22:29:18.011Z,100.00
2022-12-27T22:31:50.405Z,100.00
2022-12-27T22:34:22.725Z,100.00
2022-12-27T22:36:55.332Z,100.00
2022-12-27T22:39:28.349Z,100.00
2022-12-27T22:42:00.839Z,100.00
2022-12-27T22:44:34.148Z,100.00
2022-12-27T22:47:25.795Z,100.00
2022-12-27T22:49:58.826Z,100.00
2022-12-27T22:52:31.510Z,100.00
2022-12-27T22:55:07.189Z,100.00
2022-12-27T22:57:39.941Z,100.00
2022-12-27T23:00:14.393Z,100.00
2022-12-27T23:02:46.907Z,100.00
2022-12-27T23:05:19.266Z,100.00
2022-12-27T23:08:04.124Z,100.00
2022-12-27T23:10:39.123Z,100.00
2022-12-27T23:13:11.469Z,100.00
2022-12-27T23:15:44.450Z,100.00
2022-12-27T23:18:16.824Z,100.00
2022-12-27T23:21:19.232Z,100.00
2022-12-27T23:23:41.479Z,100.00
2022-12-27T23:26:20.408Z,100.00
2022-12-27T23:28:52.971Z,100.00
2022-12-27T23:31:26.445Z,100.00
2022-12-27T23:33:58.870Z,100.00
2022-12-27T23:36:31.667Z,100.00
2022-12-27T23:39:04.367Z,100.00
2022-12-27T23:41:36.696Z,100.00
2022-12-27T23:44:09.079Z,100.00
2022-12-27T23:46:42.134Z,100.00
2022-12-27T23:49:15.320Z,100.00
2022-12-27T23:51:47.608Z,100.00
2022-12-27T23:54:20.154Z,100.00
2022-12-27T23:56:52.476Z,100.00
2022-12-27T23:59:24.845Z,100.00
